createdAt,value
2023-06-01T00:01:38.567Z,11.66
2023-06-01T00:04:08.606Z,11.62
2023-06-01T00:06:37.530Z,11.55
2023-06-01T00:09:06.327Z,11.54
2023-06-01T00:11:35.036Z,11.38
2023-06-01T00:14:03.745Z,11.38
2023-06-01T00:16:34.355Z,11.21
2023-06-01T00:19:04.390Z,11.64
2023-06-01T00:21:34.347Z,11.69
2023-06-01T00:24:03.116Z,11.67
2023-06-01T00:26:33.113Z,11.24
2023-06-01T00:29:01.967Z,11.17
2023-06-01T00:31:30.318Z,11.49
2023-06-01T00:34:00.579Z,11.40
2023-06-01T00:36:29.293Z,11.56
2023-06-01T00:39:03.120Z,11.21
2023-06-01T00:41:33.499Z,11.13
2023-06-01T00:44:02.313Z,11.50
2023-06-01T00:46:31.533Z,11.51
2023-06-01T00:49:01.728Z,11.35
2023-06-01T00:51:30.466Z,11.39
2023-06-01T00:53:59.145Z,11.10
2023-06-01T00:56:27.928Z,11.07
2023-06-01T00:58:56.165Z,11.22
2023-06-01T01:01:25.666Z,11.12
2023-06-01T01:03:59.128Z,11.05
2023-06-01T01:06:32.909Z,11.07
2023-06-01T01:09:08.396Z,10.89
2023-06-01T01:11:39.614Z,10.87
2023-06-01T01:14:10.704Z,11.24
2023-06-01T01:16:46.902Z,11.14
2023-06-01T01:19:26.144Z,11.09
2023-06-01T01:22:01.579Z,11.13
2023-06-01T01:24:35.307Z,10.77
2023-06-01T01:27:09.790Z,10.67
2023-06-01T01:29:40.052Z,10.57
2023-06-01T01:32:09.306Z,10.53
2023-06-01T01:34:37.624Z,10.64
2023-06-01T01:37:06.595Z,10.66
2023-06-01T01:39:35.396Z,10.62
2023-06-01T01:42:04.200Z,10.58
2023-06-01T01:44:33.039Z,10.58
2023-06-01T01:49:36.918Z,10.44
2023-06-01T01:52:09.197Z,10.78
2023-06-01T01:54:38.626Z,10.71
2023-06-01T01:57:07.637Z,10.84
2023-06-01T01:59:36.444Z,10.75
2023-06-01T02:02:06.658Z,10.40
2023-06-01T02:04:35.055Z,10.71
2023-06-01T02:07:03.796Z,10.69
2023-06-01T02:09:35.060Z,10.79
2023-06-01T02:12:04.354Z,10.69
2023-06-01T02:14:34.671Z,10.72
2023-06-01T02:17:04.109Z,10.83
2023-06-01T02:19:33.770Z,10.79
2023-06-01T02:22:03.642Z,10.80
2023-06-01T02:24:32.570Z,10.73
2023-06-01T02:27:01.896Z,10.74
2023-06-01T02:29:30.600Z,10.81
2023-06-01T02:31:59.362Z,10.77
2023-06-01T02:34:28.125Z,10.88
2023-06-01T02:36:58.340Z,10.90
2023-06-01T02:39:28.240Z,10.92
2023-06-01T02:41:56.963Z,10.98
2023-06-01T02:44:25.895Z,10.97
2023-06-01T02:46:54.181Z,10.95
2023-06-01T02:49:22.906Z,11.05
2023-06-01T02:51:51.600Z,11.06
2023-06-01T02:54:23.972Z,11.14
2023-06-01T02:56:53.851Z,11.13
2023-06-01T02:59:32.432Z,11.29
2023-06-01T03:02:04.477Z,11.27
2023-06-01T03:04:34.234Z,11.34
2023-06-01T03:07:03.649Z,11.53
2023-06-01T03:09:39.806Z,11.49
2023-06-01T03:12:28.732Z,11.35
2023-06-01T03:14:57.504Z,11.38
2023-06-01T03:17:26.551Z,11.59
2023-06-01T03:19:54.939Z,11.65
2023-06-01T03:22:25.250Z,11.79
2023-06-01T03:24:56.080Z,11.91
2023-06-01T03:27:31.768Z,11.89
2023-06-01T03:30:02.936Z,11.95
2023-06-01T03:32:32.088Z,12.06
2023-06-01T03:35:02.161Z,12.09
2023-06-01T03:37:30.475Z,12.26
2023-06-01T03:40:00.997Z,12.22
2023-06-01T03:42:34.199Z,12.28
2023-06-01T03:45:05.192Z,12.42
2023-06-01T03:47:34.052Z,12.55
2023-06-01T03:50:03.261Z,12.56
2023-06-01T03:52:31.790Z,12.65
2023-06-01T03:55:02.883Z,12.74
2023-06-01T03:58:08.754Z,12.85
2023-06-01T04:00:38.195Z,12.65
2023-06-01T04:03:08.807Z,13.11
2023-06-01T04:05:38.584Z,13.18
2023-06-01T04:08:07.650Z,12.84
2023-06-01T04:10:37.683Z,13.56
2023-06-01T04:13:06.542Z,13.70
2023-06-01T04:15:35.220Z,13.70
2023-06-01T04:18:05.797Z,13.88
2023-06-01T04:20:52.125Z,13.96
2023-06-01T04:23:20.810Z,13.91
2023-06-01T04:25:51.912Z,13.94
2023-06-01T04:28:21.771Z,14.02
2023-06-01T04:30:53.527Z,14.19
2023-06-01T04:33:23.830Z,14.33
2023-06-01T04:35:54.201Z,14.41
2023-06-01T04:38:26.267Z,14.39
2023-06-01T04:40:56.568Z,14.58
2023-06-01T04:43:25.493Z,14.54
2023-06-01T04:45:54.862Z,14.73
2023-06-01T04:48:23.778Z,14.66
2023-06-01T04:51:00.309Z,14.65
2023-06-01T04:53:29.440Z,14.58
2023-06-01T04:55:59.837Z,14.46
2023-06-01T04:58:28.375Z,14.51
2023-06-01T05:00:57.121Z,14.59
2023-06-01T05:03:26.041Z,14.76
2023-06-01T05:05:54.866Z,14.93
2023-06-01T05:08:23.883Z,15.18
2023-06-01T05:10:52.415Z,14.78
2023-06-01T05:13:22.690Z,14.51
2023-06-01T05:15:51.682Z,14.69
2023-06-01T05:18:20.453Z,15.05
2023-06-01T05:20:49.114Z,14.43
2023-06-01T05:23:19.429Z,14.77
2023-06-01T05:25:48.956Z,15.03
2023-06-01T05:28:17.761Z,15.13
2023-06-01T05:30:48.058Z,15.21
2023-06-01T05:33:17.027Z,15.23
2023-06-01T05:35:46.045Z,15.64
2023-06-01T05:38:18.779Z,15.84
2023-06-01T05:40:47.201Z,16.08
2023-06-01T05:43:16.553Z,16.28
2023-06-01T05:45:45.495Z,16.57
2023-06-01T05:48:16.277Z,16.57
2023-06-01T05:50:50.933Z,16.98
2023-06-01T05:53:19.707Z,16.55
2023-06-01T05:55:48.723Z,16.39
2023-06-01T05:58:18.517Z,15.86
2023-06-01T06:00:47.224Z,16.25
2023-06-01T06:03:17.452Z,16.61
2023-06-01T06:05:46.337Z,16.46
2023-06-01T06:08:15.020Z,16.39
2023-06-01T06:10:43.670Z,16.87
2023-06-01T06:13:12.882Z,17.08
2023-06-01T06:15:41.674Z,17.24
2023-06-01T06:18:10.469Z,17.16
2023-06-01T06:20:40.770Z,17.60
2023-06-01T06:23:09.465Z,17.26
2023-06-01T06:25:37.949Z,17.60
2023-06-01T06:28:06.882Z,17.77
2023-06-01T06:30:35.676Z,17.68
2023-06-01T06:33:04.534Z,17.88
2023-06-01T06:35:35.425Z,18.15
2023-06-01T06:38:05.617Z,17.66
2023-06-01T06:40:33.856Z,17.61
2023-06-01T06:43:02.678Z,17.78
2023-06-01T06:45:31.351Z,17.86
2023-06-01T06:48:00.205Z,17.75
2023-06-01T06:50:29.003Z,18.54
2023-06-01T06:52:57.757Z,18.75
2023-06-01T06:55:28.068Z,18.92
2023-06-01T06:57:56.893Z,19.35
2023-06-01T07:00:25.695Z,19.19
2023-06-01T07:02:55.076Z,18.93
2023-06-01T07:05:23.731Z,18.64
2023-06-01T07:07:52.158Z,19.01
2023-06-01T07:10:21.135Z,18.80
2023-06-01T07:12:51.284Z,19.11
2023-06-01T07:15:19.990Z,18.92
2023-06-01T07:17:48.845Z,18.62
2023-06-01T07:20:17.642Z,18.99
2023-06-01T07:22:46.143Z,18.91
2023-06-01T07:25:15.846Z,19.01
2023-06-01T07:27:45.472Z,19.23
2023-06-01T07:30:40.628Z,19.19
2023-06-01T07:33:11.171Z,19.35
2023-06-01T07:35:40.044Z,19.21
2023-06-01T07:38:09.408Z,19.23
2023-06-01T07:40:37.723Z,19.62
2023-06-01T07:43:06.573Z,19.81
2023-06-01T07:45:35.370Z,20.07
2023-06-01T07:48:04.264Z,19.86
2023-06-01T07:50:34.568Z,19.70
2023-06-01T07:53:04.056Z,20.08
2023-06-01T07:55:32.362Z,19.32
2023-06-01T07:58:01.144Z,19.67
2023-06-01T08:00:29.835Z,19.38
2023-06-01T08:03:00.506Z,19.94
2023-06-01T08:05:29.589Z,20.90
2023-06-01T08:07:59.882Z,20.98
2023-06-01T08:10:28.187Z,20.76
2023-06-01T08:12:57.716Z,20.80
2023-06-01T08:15:27.016Z,20.66
2023-06-01T08:17:55.865Z,20.52
2023-06-01T08:20:25.040Z,20.74
2023-06-01T08:22:53.304Z,20.42
2023-06-01T08:25:24.257Z,20.46
2023-06-01T08:27:53.016Z,20.90
2023-06-01T08:30:21.753Z,20.74
2023-06-01T08:32:50.983Z,20.97
2023-06-01T08:35:20.533Z,21.23
2023-06-01T08:37:57.517Z,21.33
2023-06-01T08:40:27.810Z,21.46
2023-06-01T08:42:59.412Z,21.62
2023-06-01T08:45:28.100Z,21.76
2023-06-01T08:47:57.089Z,21.30
2023-06-01T08:50:26.189Z,21.69
2023-06-01T08:52:57.126Z,21.61
2023-06-01T08:55:27.381Z,21.81
2023-06-01T08:57:56.140Z,21.91
2023-06-01T09:00:24.869Z,22.21
2023-06-01T09:02:53.609Z,22.15
2023-06-01T09:05:22.377Z,22.34
2023-06-01T09:07:50.855Z,22.09
2023-06-01T09:10:23.377Z,21.76
2023-06-01T09:12:55.121Z,21.47
2023-06-01T09:15:24.283Z,21.93
2023-06-01T09:17:53.481Z,22.12
2023-06-01T09:20:25.805Z,21.91
2023-06-01T09:22:54.230Z,22.25
2023-06-01T09:25:25.955Z,22.91
2023-06-01T09:27:56.496Z,22.97
2023-06-01T09:30:26.420Z,22.62
2023-06-01T09:33:09.106Z,22.28
2023-06-01T09:35:40.952Z,21.93
2023-06-01T09:38:09.806Z,21.70
2023-06-01T09:40:39.741Z,22.15
2023-06-01T09:43:32.381Z,21.73
2023-06-01T09:46:09.462Z,22.15
2023-06-01T09:48:38.778Z,22.50
2023-06-01T09:51:07.650Z,23.41
2023-06-01T09:53:42.750Z,23.40
2023-06-01T09:56:11.488Z,23.86
2023-06-01T09:58:42.109Z,23.29
2023-06-01T10:01:13.483Z,24.74
2023-06-01T10:03:43.472Z,24.71
2023-06-01T10:06:13.288Z,23.71
2023-06-01T10:08:42.127Z,23.65
2023-06-01T10:11:10.846Z,22.81
2023-06-01T10:13:39.131Z,23.86
2023-06-01T10:16:08.237Z,23.45
2023-06-01T10:18:38.356Z,24.59
2023-06-01T10:21:07.957Z,24.75
2023-06-01T10:23:36.985Z,27.24
2023-06-01T10:26:08.086Z,28.71
2023-06-01T10:28:37.118Z,27.34
2023-06-01T10:31:27.004Z,29.66
2023-06-01T10:33:59.106Z,30.72
2023-06-01T10:36:30.557Z,29.85
2023-06-01T10:39:14.056Z,29.83
2023-06-01T10:41:42.801Z,31.16
2023-06-01T10:44:17.242Z,31.87
2023-06-01T10:46:46.165Z,32.32
2023-06-01T10:49:16.449Z,29.72
2023-06-01T10:51:45.529Z,30.50
2023-06-01T10:54:29.387Z,30.93
2023-06-01T10:57:16.699Z,31.06
2023-06-01T10:59:45.449Z,32.82
2023-06-01T11:02:14.136Z,31.53
2023-06-01T11:04:43.946Z,32.41
2023-06-01T11:07:55.423Z,31.40
2023-06-01T11:10:59.663Z,31.31
2023-06-01T11:13:31.172Z,31.69
2023-06-01T11:16:30.315Z,32.96
2023-06-01T11:19:00.577Z,33.50
2023-06-01T11:21:31.023Z,32.72
2023-06-01T11:24:02.469Z,33.15
2023-06-01T11:26:33.662Z,33.86
2023-06-01T11:29:10.406Z,34.06
2023-06-01T11:31:41.318Z,32.88
2023-06-01T11:34:11.633Z,32.23
2023-06-01T11:36:42.749Z,30.82
2023-06-01T11:39:25.238Z,30.92
2023-06-01T11:42:06.399Z,31.90
2023-06-01T11:44:36.264Z,33.13
2023-06-01T11:47:07.868Z,34.30
2023-06-01T11:49:45.480Z,33.69
2023-06-01T11:52:14.679Z,35.80
2023-06-01T11:54:45.483Z,34.14
2023-06-01T11:57:14.858Z,35.43
2023-06-01T11:59:45.708Z,34.04
2023-06-01T12:02:25.836Z,33.23
2023-06-01T12:04:59.974Z,34.40
2023-06-01T12:07:30.739Z,33.38
2023-06-01T12:10:02.497Z,32.25
2023-06-01T12:12:34.874Z,32.28
2023-06-01T12:15:04.279Z,32.76
2023-06-01T12:17:57.877Z,31.56
2023-06-01T12:20:32.033Z,31.87
2023-06-01T12:23:04.578Z,32.26
2023-06-01T12:25:35.437Z,33.23
2023-06-01T12:28:06.066Z,32.39
2023-06-01T12:30:35.259Z,32.56
2023-06-01T12:33:07.081Z,32.08
2023-06-01T12:35:50.217Z,33.14
2023-06-01T12:38:19.220Z,32.44
2023-06-01T12:41:08.534Z,31.72
2023-06-01T12:43:38.100Z,29.66
2023-06-01T12:46:07.769Z,31.41
2023-06-01T12:48:36.906Z,31.67
2023-06-01T12:51:07.108Z,31.25
2023-06-01T12:53:36.286Z,31.44
2023-06-01T12:56:07.652Z,33.02
2023-06-01T12:58:36.370Z,31.94
2023-06-01T13:01:06.244Z,32.98
2023-06-01T13:03:35.811Z,33.02
2023-06-01T13:06:05.108Z,32.69
2023-06-01T13:08:34.257Z,30.20
2023-06-01T13:11:03.268Z,31.01
2023-06-01T13:13:33.388Z,32.13
2023-06-01T13:16:02.898Z,31.16
2023-06-01T13:18:31.802Z,31.08
2023-06-01T13:21:01.008Z,30.48
2023-06-01T13:23:29.969Z,31.27
2023-06-01T13:25:59.214Z,30.56
2023-06-01T13:28:28.003Z,30.59
2023-06-01T13:30:58.531Z,30.25
2023-06-01T13:33:27.559Z,30.64
2023-06-01T13:35:56.851Z,30.17
2023-06-01T13:38:26.270Z,30.51
2023-06-01T13:40:55.263Z,30.30
2023-06-01T13:43:25.090Z,30.14
2023-06-01T13:45:54.488Z,30.34
2023-06-01T13:48:26.090Z,30.14
2023-06-01T13:50:55.120Z,29.60
2023-06-01T13:53:24.210Z,29.45
2023-06-01T13:55:52.940Z,29.65
2023-06-01T13:58:22.128Z,30.47
2023-06-01T14:00:51.362Z,29.62
2023-06-01T14:03:20.992Z,28.85
2023-06-01T14:05:55.818Z,29.44
2023-06-01T14:08:26.396Z,29.87
2023-06-01T14:10:55.123Z,28.87
2023-06-01T14:13:24.236Z,27.93
2023-06-01T14:15:53.236Z,28.31
2023-06-01T14:18:22.345Z,28.52
2023-06-01T14:20:53.679Z,28.99
2023-06-01T14:23:22.605Z,29.20
2023-06-01T14:25:51.486Z,28.46
2023-06-01T14:28:20.506Z,28.07
2023-06-01T14:30:49.750Z,28.62
2023-06-01T14:33:19.039Z,29.10
2023-06-01T14:35:48.066Z,29.67
2023-06-01T14:38:18.803Z,29.97
2023-06-01T14:40:47.940Z,29.37
2023-06-01T14:43:17.266Z,29.79
2023-06-01T14:45:46.330Z,29.29
2023-06-01T14:48:15.604Z,29.76
2023-06-01T14:50:44.924Z,29.05
2023-06-01T14:53:14.251Z,28.91
2023-06-01T14:55:44.660Z,28.07
2023-06-01T14:58:13.955Z,28.83
2023-06-01T15:00:43.032Z,28.70
2023-06-01T15:03:12.406Z,28.35
2023-06-01T15:05:41.497Z,28.49
2023-06-01T15:08:10.810Z,29.42
2023-06-01T15:10:39.537Z,30.22
2023-06-01T15:13:10.375Z,29.95
2023-06-01T15:15:39.479Z,29.41
2023-06-01T15:18:08.567Z,29.37
2023-06-01T15:20:37.565Z,30.13
2023-06-01T15:23:06.701Z,29.92
2023-06-01T15:25:35.452Z,30.36
2023-06-01T15:28:04.984Z,30.00
2023-06-01T15:30:36.364Z,29.64
2023-06-01T15:33:08.639Z,27.66
2023-06-01T15:35:38.480Z,28.21
2023-06-01T15:38:07.579Z,28.05
2023-06-01T15:40:36.330Z,28.29
2023-06-01T15:43:05.405Z,28.37
2023-06-01T15:45:36.091Z,27.42
2023-06-01T15:48:05.376Z,27.69
2023-06-01T15:50:34.624Z,27.09
2023-06-01T15:53:03.769Z,27.26
2023-06-01T15:55:32.723Z,27.32
2023-06-01T15:58:01.879Z,27.49
2023-06-01T16:00:32.361Z,27.99
2023-06-01T16:03:02.970Z,28.40
2023-06-01T16:05:32.192Z,28.14
2023-06-01T16:08:01.459Z,28.64
2023-06-01T16:10:31.234Z,28.90
2023-06-01T16:13:00.682Z,28.51
2023-06-01T16:15:29.828Z,28.39
2023-06-01T16:17:59.002Z,27.38
2023-06-01T16:20:29.662Z,27.10
2023-06-01T16:22:58.545Z,27.83
2023-06-01T16:25:27.535Z,27.39
2023-06-01T16:27:57.717Z,26.73
2023-06-01T16:30:27.115Z,26.76
2023-06-01T16:32:56.307Z,26.93
2023-06-01T16:35:25.437Z,26.59
2023-06-01T16:37:55.588Z,26.97
2023-06-01T16:40:24.661Z,26.73
2023-06-01T16:42:53.633Z,28.06
2023-06-01T16:45:22.667Z,27.92
2023-06-01T16:47:53.304Z,28.43
2023-06-01T16:50:22.398Z,28.89
2023-06-01T16:52:51.182Z,28.77
2023-06-01T16:55:21.896Z,28.02
2023-06-01T16:57:50.992Z,27.17
2023-06-01T17:00:20.332Z,27.00
2023-06-01T17:02:49.647Z,26.29
2023-06-01T17:05:18.945Z,26.44
2023-06-01T17:07:47.732Z,25.87
2023-06-01T17:10:16.929Z,26.69
2023-06-01T17:12:47.398Z,26.92
2023-06-01T17:15:16.622Z,27.60
2023-06-01T17:17:45.968Z,28.56
2023-06-01T17:20:16.143Z,29.14
2023-06-01T17:22:46.273Z,29.54
2023-06-01T17:25:15.290Z,29.38
2023-06-01T17:27:45.133Z,29.23
2023-06-01T17:30:16.289Z,28.99
2023-06-01T17:32:45.636Z,27.77
2023-06-01T17:35:15.004Z,28.07
2023-06-01T17:37:43.785Z,27.45
2023-06-01T17:40:13.699Z,27.01
2023-06-01T17:42:43.017Z,25.95
2023-06-01T17:45:14.741Z,24.73
2023-06-01T17:47:45.323Z,23.87
2023-06-01T17:50:14.558Z,23.24
2023-06-01T17:52:43.589Z,22.97
2023-06-01T17:55:12.667Z,22.63
2023-06-01T17:57:41.866Z,22.89
2023-06-01T18:00:12.392Z,22.25
2023-06-01T18:02:41.501Z,21.91
2023-06-01T18:05:12.152Z,21.59
2023-06-01T18:07:40.673Z,21.64
2023-06-01T18:10:10.644Z,21.97
2023-06-01T18:12:39.730Z,21.16
2023-06-01T18:15:09.743Z,21.16
2023-06-01T18:17:39.088Z,21.17
2023-06-01T18:20:09.389Z,20.88
2023-06-01T18:22:39.556Z,20.89
2023-06-01T18:25:09.558Z,20.88
2023-06-01T18:27:38.884Z,20.53
2023-06-01T18:30:09.873Z,20.19
2023-06-01T18:32:39.136Z,19.90
2023-06-01T18:35:09.341Z,19.82
2023-06-01T18:37:39.417Z,20.46
2023-06-01T18:40:09.824Z,20.42
2023-06-01T18:42:38.981Z,20.28
2023-06-01T18:45:08.860Z,20.23
2023-06-01T18:47:38.090Z,19.68
2023-06-01T18:50:08.391Z,19.91
2023-06-01T18:52:39.529Z,19.46
2023-06-01T18:55:10.379Z,19.43
2023-06-01T18:57:39.494Z,19.31
2023-06-01T19:00:09.748Z,19.09
2023-06-01T19:02:39.297Z,19.03
2023-06-01T19:05:09.525Z,18.94
2023-06-01T19:07:40.732Z,18.82
2023-06-01T19:10:11.378Z,18.59
2023-06-01T19:12:40.849Z,18.60
2023-06-01T19:15:13.407Z,18.62
2023-06-01T19:17:43.045Z,18.81
2023-06-01T19:20:47.502Z,19.14
2023-06-01T19:23:17.709Z,19.05
2023-06-01T19:25:46.884Z,18.94
2023-06-01T19:28:15.861Z,18.34
2023-06-01T19:30:47.714Z,18.09
2023-06-01T19:33:18.839Z,18.19
2023-06-01T19:35:48.418Z,18.05
2023-06-01T19:38:20.215Z,18.45
2023-06-01T19:40:49.632Z,18.47
2023-06-01T19:43:40.702Z,18.02
2023-06-01T19:46:21.180Z,17.84
2023-06-01T19:48:50.274Z,17.52
2023-06-01T19:51:20.586Z,17.56
2023-06-01T19:53:51.440Z,17.61
2023-06-01T19:56:42.137Z,18.02
2023-06-01T19:59:19.723Z,17.97
2023-06-01T20:01:49.648Z,17.68
2023-06-01T20:04:19.053Z,17.59
2023-06-01T20:06:49.046Z,17.47
2023-06-01T20:09:21.086Z,17.48
2023-06-01T20:11:52.226Z,17.50
2023-06-01T20:14:24.018Z,17.38
2023-06-01T20:16:56.010Z,17.35
2023-06-01T20:19:25.377Z,17.28
2023-06-01T20:21:55.924Z,17.19
2023-06-01T20:24:27.482Z,17.15
2023-06-01T20:26:59.132Z,17.32
2023-06-01T20:29:29.779Z,17.21
2023-06-01T20:31:59.779Z,17.28
2023-06-01T20:34:30.651Z,17.30
2023-06-01T20:37:00.286Z,17.07
2023-06-01T20:39:30.923Z,16.93
2023-06-01T20:42:00.504Z,16.79
2023-06-01T20:44:29.859Z,16.86
2023-06-01T20:46:59.000Z,17.03
2023-06-01T20:49:29.389Z,17.29
2023-06-01T20:51:58.583Z,17.35
2023-06-01T20:54:30.664Z,17.32
2023-06-01T20:57:01.303Z,17.15
2023-06-01T20:59:32.696Z,17.01
2023-06-01T21:02:02.773Z,17.05
2023-06-01T21:04:32.986Z,17.11
2023-06-01T21:07:03.420Z,16.94
2023-06-01T21:09:34.081Z,16.77
2023-06-01T21:12:03.598Z,16.71
2023-06-01T21:14:32.913Z,15.61
2023-06-01T21:17:02.057Z,15.46
2023-06-01T21:19:30.806Z,15.80
2023-06-01T21:22:00.017Z,16.00
2023-06-01T21:24:29.204Z,15.81
2023-06-01T21:27:00.100Z,15.89
2023-06-01T21:29:29.231Z,15.80
2023-06-01T21:31:58.410Z,15.74
2023-06-01T21:34:27.116Z,15.65
2023-06-01T21:36:58.830Z,15.46
2023-06-01T21:39:28.013Z,15.42
2023-06-01T21:41:57.064Z,15.28
2023-06-01T21:44:27.771Z,15.22
2023-06-01T21:46:56.309Z,15.07
2023-06-01T21:49:25.349Z,14.90
2023-06-01T21:51:54.463Z,14.76
2023-06-01T21:54:23.865Z,14.69
2023-06-01T21:56:53.110Z,14.27
2023-06-01T21:59:22.275Z,14.13
2023-06-01T22:01:52.395Z,14.33
2023-06-01T22:04:21.586Z,14.33
2023-06-01T22:06:50.655Z,14.24
2023-06-01T22:09:19.808Z,14.10
2023-06-01T22:11:48.973Z,14.02
2023-06-01T22:14:18.253Z,13.90
2023-06-01T22:16:46.909Z,13.76
2023-06-01T22:19:17.701Z,13.77
2023-06-01T22:21:47.166Z,13.69
2023-06-01T22:24:17.068Z,13.66
2023-06-01T22:26:46.142Z,13.56
2023-06-01T22:29:15.299Z,13.44
2023-06-01T22:31:44.054Z,13.39
2023-06-01T22:34:13.470Z,12.93
2023-06-01T22:36:44.088Z,12.97
2023-06-01T22:39:13.236Z,13.15
2023-06-01T22:41:42.356Z,13.13
2023-06-01T22:44:11.664Z,13.01
2023-06-01T22:46:40.928Z,13.06
2023-06-01T22:49:11.033Z,13.07
2023-06-01T22:51:41.656Z,12.99
2023-06-01T22:54:12.443Z,12.94
2023-06-01T22:56:41.767Z,12.88
2023-06-01T22:59:10.877Z,12.66
2023-06-01T23:01:39.629Z,12.57
2023-06-01T23:04:08.945Z,12.70
2023-06-01T23:06:39.463Z,12.67
2023-06-01T23:09:11.261Z,12.66
2023-06-01T23:11:42.169Z,12.59
2023-06-01T23:14:13.993Z,12.36
2023-06-01T23:16:46.473Z,12.36
2023-06-01T23:19:17.209Z,12.20
2023-06-01T23:21:49.292Z,12.12
2023-06-01T23:24:19.354Z,12.12
2023-06-01T23:26:49.918Z,12.06
2023-06-01T23:29:19.161Z,12.13
2023-06-01T23:31:48.976Z,12.13
2023-06-01T23:34:17.942Z,11.46
2023-06-01T23:36:47.032Z,11.73
2023-06-01T23:39:16.324Z,11.83
2023-06-01T23:41:45.334Z,11.86
2023-06-01T23:44:16.822Z,11.84
2023-06-01T23:46:46.389Z,11.81
2023-06-01T23:49:16.124Z,11.75
2023-06-01T23:51:45.294Z,11.66
2023-06-01T23:54:14.408Z,11.59
2023-06-01T23:56:43.537Z,11.51
2023-06-01T23:59:12.578Z,11.46
